sensor_id;sensor_type;location;lat;lon;timestamp;temperature;humidity
42803;DHT22;28447;48.682;9.022;2023-06-04T04:03:55;11.20;99.90
42803;DHT22;28447;48.682;9.022;2023-06-04T04:06:21;11.30;99.90
42803;DHT22;28447;48.682;9.022;2023-06-04T04:08:47;11.20;99.90
42803;DHT22;28447;48.682;9.022;2023-06-04T04:11:15;11.40;99.90
42803;DHT22;28447;48.682;9.022;2023-06-04T04:13:41;11.40;99.90
42803;DHT22;28447;48.682;9.022;2023-06-04T04:16:06;11.40;99.90
42803;DHT22;28447;48.682;9.022;2023-06-04T04:18:33;11.40;99.90
42803;DHT22;28447;48.682;9.022;2023-06-04T04:20:59;11.40;99.90
42803;DHT22;28447;48.682;9.022;2023-06-04T04:23:25;11.40;99.90
42803;DHT22;28447;48.682;9.022;2023-06-04T04:25:52;11.40;99.90
42803;DHT22;28447;48.682;9.022;2023-06-04T04:28:19;11.50;99.90
42803;DHT22;28447;48.682;9.022;2023-06-04T04:30:45;11.60;99.90
42803;DHT22;28447;48.682;9.022;2023-06-04T04:33:12;11.60;99.90
42803;DHT22;28447;48.682;9.022;2023-06-04T04:35:41;11.60;99.90
42803;DHT22;28447;48.682;9.022;2023-06-04T04:38:08;11.60;99.90
42803;DHT22;28447;48.682;9.022;2023-06-04T04:40:33;11.60;99.90
42803;DHT22;28447;48.682;9.022;2023-06-04T04:42:59;11.70;99.90
42803;DHT22;28447;48.682;9.022;2023-06-04T04:45:25;11.80;99.90
42803;DHT22;28447;48.682;9.022;2023-06-04T04:47:51;11.90;99.90
42803;DHT22;28447;48.682;9.022;2023-06-04T04:50:16;12.00;99.90
42803;DHT22;28447;48.682;9.022;2023-06-04T04:52:42;12.20;99.90
42803;DHT22;28447;48.682;9.022;2023-06-04T04:55:08;12.50;99.90
42803;DHT22;28447;48.682;9.022;2023-06-04T04:57:34;12.40;99.90
42803;DHT22;28447;48.682;9.022;2023-06-04T05:00:00;12.40;99.90
42803;DHT22;28447;48.682;9.022;2023-06-04T05:02:26;12.50;99.90
42803;DHT22;28447;48.682;9.022;2023-06-04T05:04:51;12.50;99.90
42803;DHT22;28447;48.682;9.022;2023-06-04T05:07:17;12.60;99.90
42803;DHT22;28447;48.682;9.022;2023-06-04T05:09:42;12.80;99.90
42803;DHT22;28447;48.682;9.022;2023-06-04T05:12:08;12.90;99.90
42803;DHT22;28447;48.682;9.022;2023-06-04T05:14:34;13.30;99.90
42803;DHT22;28447;48.682;9.022;2023-06-04T05:17:02;13.30;99.90
42803;DHT22;28447;48.682;9.022;2023-06-04T05:19:31;13.60;99.90
42803;DHT22;28447;48.682;9.022;2023-06-04T05:21:58;13.70;99.90
42803;DHT22;28447;48.682;9.022;2023-06-04T05:24:26;13.60;99.90
42803;DHT22;28447;48.682;9.022;2023-06-04T05:26:51;13.70;99.90
42803;DHT22;28447;48.682;9.022;2023-06-04T05:29:17;13.80;99.90
42803;DHT22;28447;48.682;9.022;2023-06-04T05:31:42;14.00;99.90
42803;DHT22;28447;48.682;9.022;2023-06-04T05:34:09;14.10;99.90
42803;DHT22;28447;48.682;9.022;2023-06-04T05:36:36;14.30;99.90
42803;DHT22;28447;48.682;9.022;2023-06-04T05:39:02;14.40;99.90
42803;DHT22;28447;48.682;9.022;2023-06-04T05:41:28;14.60;99.90
42803;DHT22;28447;48.682;9.022;2023-06-04T05:43:54;14.70;99.90
42803;DHT22;28447;48.682;9.022;2023-06-04T05:46:20;14.60;99.90
42803;DHT22;28447;48.682;9.022;2023-06-04T05:48:47;14.90;99.90
42803;DHT22;28447;48.682;9.022;2023-06-04T05:51:15;15.20;99.90
42803;DHT22;28447;48.682;9.022;2023-06-04T05:53:41;15.20;99.90
42803;DHT22;28447;48.682;9.022;2023-06-04T05:56:07;15.30;99.90
42803;DHT22;28447;48.682;9.022;2023-06-04T05:58:33;15.30;99.90
42803;DHT22;28447;48.682;9.022;2023-06-04T06:01:02;15.20;99.90
42803;DHT22;28447;48.682;9.022;2023-06-04T06:03:28;14.90;99.90
42803;DHT22;28447;48.682;9.022;2023-06-04T06:05:54;15.10;99.90
42803;DHT22;28447;48.682;9.022;2023-06-04T06:08:20;15.10;99.50
42803;DHT22;28447;48.682;9.022;2023-06-04T06:10:46;15.30;99.90
42803;DHT22;28447;48.682;9.022;2023-06-04T06:13:12;15.60;99.90
42803;DHT22;28447;48.682;9.022;2023-06-04T06:15:38;15.70;99.10
42803;DHT22;28447;48.682;9.022;2023-06-04T06:18:04;15.70;99.40
42803;DHT22;28447;48.682;9.022;2023-06-04T06:20:30;15.90;99.10
42803;DHT22;28447;48.682;9.022;2023-06-04T06:22:57;16.10;98.30
42803;DHT22;28447;48.682;9.022;2023-06-04T06:25:23;16.10;99.90
42803;DHT22;28447;48.682;9.022;2023-06-04T06:27:49;16.30;98.80
42803;DHT22;28447;48.682;9.022;2023-06-04T06:30:15;16.60;98.10
42803;DHT22;28447;48.682;9.022;2023-06-04T06:32:41;16.50;98.40
42803;DHT22;28447;48.682;9.022;2023-06-04T06:35:08;16.60;97.30
42803;DHT22;28447;48.682;9.022;2023-06-04T06:37:33;16.80;96.90
42803;DHT22;28447;48.682;9.022;2023-06-04T06:39:59;17.00;96.50
42803;DHT22;28447;48.682;9.022;2023-06-04T06:42:25;17.00;98.90
42803;DHT22;28447;48.682;9.022;2023-06-04T06:44:50;17.00;99.30
42803;DHT22;28447;48.682;9.022;2023-06-04T06:47:16;17.30;98.70
42803;DHT22;28447;48.682;9.022;2023-06-04T06:49:42;17.60;96.00
42803;DHT22;28447;48.682;9.022;2023-06-04T06:52:08;17.70;95.10
42803;DHT22;28447;48.682;9.022;2023-06-04T06:54:34;17.90;94.00
42803;DHT22;28447;48.682;9.022;2023-06-04T06:56:59;18.10;93.70
42803;DHT22;28447;48.682;9.022;2023-06-04T06:59:26;18.40;93.10
42803;DHT22;28447;48.682;9.022;2023-06-04T07:01:52;18.40;95.00
42803;DHT22;28447;48.682;9.022;2023-06-04T07:04:18;18.40;94.30
42803;DHT22;28447;48.682;9.022;2023-06-04T07:06:43;18.50;94.50
42803;DHT22;28447;48.682;9.022;2023-06-04T07:09:09;18.80;92.80
42803;DHT22;28447;48.682;9.022;2023-06-04T07:11:35;18.80;93.40
42803;DHT22;28447;48.682;9.022;2023-06-04T07:14:01;19.00;92.80
42803;DHT22;28447;48.682;9.022;2023-06-04T07:16:29;19.20;92.50
42803;DHT22;28447;48.682;9.022;2023-06-04T07:18:55;19.10;93.80
42803;DHT22;28447;48.682;9.022;2023-06-04T07:21:21;19.10;94.70
42803;DHT22;28447;48.682;9.022;2023-06-04T07:23:49;19.20;94.70
42803;DHT22;28447;48.682;9.022;2023-06-04T07:26:16;19.00;94.00
42803;DHT22;28447;48.682;9.022;2023-06-04T07:28:43;19.30;94.20
42803;DHT22;28447;48.682;9.022;2023-06-04T07:31:09;19.50;92.80
42803;DHT22;28447;48.682;9.022;2023-06-04T07:33:34;19.30;93.50
42803;DHT22;28447;48.682;9.022;2023-06-04T07:36:09;19.30;93.50
42803;DHT22;28447;48.682;9.022;2023-06-04T07:38:34;19.50;93.50
42803;DHT22;28447;48.682;9.022;2023-06-04T07:41:00;19.80;92.80
42803;DHT22;28447;48.682;9.022;2023-06-04T07:43:25;19.80;92.70
42803;DHT22;28447;48.682;9.022;2023-06-04T07:45:51;20.30;92.30
42803;DHT22;28447;48.682;9.022;2023-06-04T07:48:17;20.10;93.80
42803;DHT22;28447;48.682;9.022;2023-06-04T07:50:42;20.00;92.10
42803;DHT22;28447;48.682;9.022;2023-06-04T07:53:08;20.40;91.80
42803;DHT22;28447;48.682;9.022;2023-06-04T07:55:34;20.50;92.40
42803;DHT22;28447;48.682;9.022;2023-06-04T07:58:00;20.50;92.00
42803;DHT22;28447;48.682;9.022;2023-06-04T08:00:26;21.20;91.00
42803;DHT22;28447;48.682;9.022;2023-06-04T08:02:52;21.90;88.90
42803;DHT22;28447;48.682;9.022;2023-06-04T08:05:17;22.20;90.00
42803;DHT22;28447;48.682;9.022;2023-06-04T08:07:43;22.40;90.00
42803;DHT22;28447;48.682;9.022;2023-06-04T08:10:09;21.80;89.70
42803;DHT22;28447;48.682;9.022;2023-06-04T08:12:36;21.90;87.80
42803;DHT22;28447;48.682;9.022;2023-06-04T08:15:02;22.50;88.20
42803;DHT22;28447;48.682;9.022;2023-06-04T08:17:28;22.00;88.80
42803;DHT22;28447;48.682;9.022;2023-06-04T08:19:56;21.70;88.00
42803;DHT22;28447;48.682;9.022;2023-06-04T08:22:21;22.40;89.00
42803;DHT22;28447;48.682;9.022;2023-06-04T08:24:47;22.40;85.10
42803;DHT22;28447;48.682;9.022;2023-06-04T08:27:12;22.50;87.00
42803;DHT22;28447;48.682;9.022;2023-06-04T08:29:38;22.70;89.00
42803;DHT22;28447;48.682;9.022;2023-06-04T08:32:05;22.70;84.00
42803;DHT22;28447;48.682;9.022;2023-06-04T08:34:33;23.70;80.40
42803;DHT22;28447;48.682;9.022;2023-06-04T08:36:58;23.50;84.00
42803;DHT22;28447;48.682;9.022;2023-06-04T08:39:24;22.80;82.00
42803;DHT22;28447;48.682;9.022;2023-06-04T08:41:52;23.10;83.10
42803;DHT22;28447;48.682;9.022;2023-06-04T08:44:20;23.10;86.10
42803;DHT22;28447;48.682;9.022;2023-06-04T08:46:49;23.00;80.70
42803;DHT22;28447;48.682;9.022;2023-06-04T08:49:16;23.70;79.60
42803;DHT22;28447;48.682;9.022;2023-06-04T08:51:43;24.60;74.60
42803;DHT22;28447;48.682;9.022;2023-06-04T08:54:09;24.10;76.40
42803;DHT22;28447;48.682;9.022;2023-06-04T08:56:36;23.70;79.00
42803;DHT22;28447;48.682;9.022;2023-06-04T08:59:03;25.10;76.40
42803;DHT22;28447;48.682;9.022;2023-06-04T09:01:34;24.60;78.00
42803;DHT22;28447;48.682;9.022;2023-06-04T09:04:01;23.80;78.10
42803;DHT22;28447;48.682;9.022;2023-06-04T09:06:29;23.70;77.10
42803;DHT22;28447;48.682;9.022;2023-06-04T09:09:00;25.00;76.10
42803;DHT22;28447;48.682;9.022;2023-06-04T09:11:33;25.60;73.80
42803;DHT22;28447;48.682;9.022;2023-06-04T09:14:02;24.50;71.90
42803;DHT22;28447;48.682;9.022;2023-06-04T09:16:29;25.00;73.20
42803;DHT22;28447;48.682;9.022;2023-06-04T09:19:02;25.30;73.40
42803;DHT22;28447;48.682;9.022;2023-06-04T09:21:27;25.10;74.20
42803;DHT22;28447;48.682;9.022;2023-06-04T09:23:53;25.00;75.60
42803;DHT22;28447;48.682;9.022;2023-06-04T09:26:19;25.80;73.30
42803;DHT22;28447;48.682;9.022;2023-06-04T09:28:46;26.90;70.30
42803;DHT22;28447;48.682;9.022;2023-06-04T09:31:16;26.80;70.90
42803;DHT22;28447;48.682;9.022;2023-06-04T09:33:46;26.20;69.60
42803;DHT22;28447;48.682;9.022;2023-06-04T09:36:13;26.20;69.40
42803;DHT22;28447;48.682;9.022;2023-06-04T09:38:39;25.90;71.30
42803;DHT22;28447;48.682;9.022;2023-06-04T09:41:10;26.10;70.40
42803;DHT22;28447;48.682;9.022;2023-06-04T09:43:36;25.80;69.00
42803;DHT22;28447;48.682;9.022;2023-06-04T09:46:16;25.00;71.00
42803;DHT22;28447;48.682;9.022;2023-06-04T09:48:42;25.20;73.30
42803;DHT22;28447;48.682;9.022;2023-06-04T09:51:12;25.00;71.50
42803;DHT22;28447;48.682;9.022;2023-06-04T09:53:40;25.50;70.70
42803;DHT22;28447;48.682;9.022;2023-06-04T09:56:08;25.90;68.80
42803;DHT22;28447;48.682;9.022;2023-06-04T09:58:37;25.70;72.10
42803;DHT22;28447;48.682;9.022;2023-06-04T10:01:05;26.20;72.00
42803;DHT22;28447;48.682;9.022;2023-06-04T10:03:35;26.80;66.40
42803;DHT22;28447;48.682;9.022;2023-06-04T10:06:05;27.20;65.80
42803;DHT22;28447;48.682;9.022;2023-06-04T10:08:32;26.60;68.50
42803;DHT22;28447;48.682;9.022;2023-06-04T10:11:00;27.00;66.80
42803;DHT22;28447;48.682;9.022;2023-06-04T10:13:28;26.50;71.10
42803;DHT22;28447;48.682;9.022;2023-06-04T10:15:57;27.20;67.70
42803;DHT22;28447;48.682;9.022;2023-06-04T10:18:24;26.70;68.60
42803;DHT22;28447;48.682;9.022;2023-06-04T10:20:54;27.50;67.70
42803;DHT22;28447;48.682;9.022;2023-06-04T10:23:21;27.20;69.80
42803;DHT22;28447;48.682;9.022;2023-06-04T10:25:49;26.90;66.90
42803;DHT22;28447;48.682;9.022;2023-06-04T10:28:18;27.20;65.70
42803;DHT22;28447;48.682;9.022;2023-06-04T10:30:44;26.10;69.10
42803;DHT22;28447;48.682;9.022;2023-06-04T10:33:10;26.40;68.30
42803;DHT22;28447;48.682;9.022;2023-06-04T10:35:37;26.50;70.80
42803;DHT22;28447;48.682;9.022;2023-06-04T10:38:10;27.00;68.80
42803;DHT22;28447;48.682;9.022;2023-06-04T10:40:37;27.20;64.90
42803;DHT22;28447;48.682;9.022;2023-06-04T10:43:07;27.60;66.40
42803;DHT22;28447;48.682;9.022;2023-06-04T10:45:34;27.30;67.10
42803;DHT22;28447;48.682;9.022;2023-06-04T10:48:07;27.40;66.80
42803;DHT22;28447;48.682;9.022;2023-06-04T10:50:34;26.80;67.00
42803;DHT22;28447;48.682;9.022;2023-06-04T10:53:00;27.10;68.40
42803;DHT22;28447;48.682;9.022;2023-06-04T10:55:31;27.30;70.10
42803;DHT22;28447;48.682;9.022;2023-06-04T10:57:59;27.80;66.70
42803;DHT22;28447;48.682;9.022;2023-06-04T11:00:35;27.30;65.10
42803;DHT22;28447;48.682;9.022;2023-06-04T11:03:01;28.50;65.00
42803;DHT22;28447;48.682;9.022;2023-06-04T11:05:36;30.10;61.20
42803;DHT22;28447;48.682;9.022;2023-06-04T11:08:03;29.40;65.20
42803;DHT22;28447;48.682;9.022;2023-06-04T11:10:37;28.90;63.40
42803;DHT22;28447;48.682;9.022;2023-06-04T11:13:04;28.20;65.10
42803;DHT22;28447;48.682;9.022;2023-06-04T11:15:43;27.80;64.20
42803;DHT22;28447;48.682;9.022;2023-06-04T11:18:17;27.50;66.60
42803;DHT22;28447;48.682;9.022;2023-06-04T11:20:44;27.10;65.80
42803;DHT22;28447;48.682;9.022;2023-06-04T11:23:12;27.40;67.90
42803;DHT22;28447;48.682;9.022;2023-06-04T11:25:38;28.20;64.00
42803;DHT22;28447;48.682;9.022;2023-06-04T11:28:04;29.20;60.60
42803;DHT22;28447;48.682;9.022;2023-06-04T11:30:30;29.70;60.90
42803;DHT22;28447;48.682;9.022;2023-06-04T11:33:05;30.00;64.60
42803;DHT22;28447;48.682;9.022;2023-06-04T11:35:40;30.60;61.10
42803;DHT22;28447;48.682;9.022;2023-06-04T11:38:06;30.90;57.90
42803;DHT22;28447;48.682;9.022;2023-06-04T11:40:31;29.70;60.40
42803;DHT22;28447;48.682;9.022;2023-06-04T11:42:57;30.00;59.00
42803;DHT22;28447;48.682;9.022;2023-06-04T11:45:23;29.70;59.20
42803;DHT22;28447;48.682;9.022;2023-06-04T11:47:51;30.80;58.40
42803;DHT22;28447;48.682;9.022;2023-06-04T11:50:17;30.90;58.70
42803;DHT22;28447;48.682;9.022;2023-06-04T11:52:43;30.50;57.50
42803;DHT22;28447;48.682;9.022;2023-06-04T11:55:10;31.40;57.30
42803;DHT22;28447;48.682;9.022;2023-06-04T11:57:38;31.70;57.10
42803;DHT22;28447;48.682;9.022;2023-06-04T12:00:05;32.00;55.70
42803;DHT22;28447;48.682;9.022;2023-06-04T12:02:37;32.40;54.30
42803;DHT22;28447;48.682;9.022;2023-06-04T12:05:16;33.40;54.10
42803;DHT22;28447;48.682;9.022;2023-06-04T12:07:49;34.80;51.80
42803;DHT22;28447;48.682;9.022;2023-06-04T12:10:21;34.00;51.70
42803;DHT22;28447;48.682;9.022;2023-06-04T12:12:53;31.90;55.50
42803;DHT22;28447;48.682;9.022;2023-06-04T12:15:20;33.60;53.40
42803;DHT22;28447;48.682;9.022;2023-06-04T12:17:52;33.80;52.00
42803;DHT22;28447;48.682;9.022;2023-06-04T12:20:30;33.00;53.00
42803;DHT22;28447;48.682;9.022;2023-06-04T12:22:57;32.50;58.00
42803;DHT22;28447;48.682;9.022;2023-06-04T12:25:28;31.20;55.50
42803;DHT22;28447;48.682;9.022;2023-06-04T12:27:53;29.80;58.60
42803;DHT22;28447;48.682;9.022;2023-06-04T12:30:19;29.80;59.10
42803;DHT22;28447;48.682;9.022;2023-06-04T12:32:45;30.50;58.00
42803;DHT22;28447;48.682;9.022;2023-06-04T12:35:11;31.70;57.00
42803;DHT22;28447;48.682;9.022;2023-06-04T12:37:37;32.00;55.60
42803;DHT22;28447;48.682;9.022;2023-06-04T12:40:03;32.50;52.90
42803;DHT22;28447;48.682;9.022;2023-06-04T12:42:31;33.10;53.70
42803;DHT22;28447;48.682;9.022;2023-06-04T12:44:57;33.70;53.70
42803;DHT22;28447;48.682;9.022;2023-06-04T12:47:23;33.80;54.40
42803;DHT22;28447;48.682;9.022;2023-06-04T12:49:48;33.80;53.40
42803;DHT22;28447;48.682;9.022;2023-06-04T12:52:16;33.70;52.30
42803;DHT22;28447;48.682;9.022;2023-06-04T12:54:44;33.50;51.60
42803;DHT22;28447;48.682;9.022;2023-06-04T12:57:10;33.90;53.10
42803;DHT22;28447;48.682;9.022;2023-06-04T12:59:36;34.70;51.10
42803;DHT22;28447;48.682;9.022;2023-06-04T13:02:02;34.50;50.70
42803;DHT22;28447;48.682;9.022;2023-06-04T13:04:27;33.80;50.90
42803;DHT22;28447;48.682;9.022;2023-06-04T13:06:53;32.90;52.50
42803;DHT22;28447;48.682;9.022;2023-06-04T13:09:24;32.70;54.40
42803;DHT22;28447;48.682;9.022;2023-06-04T13:11:51;34.30;51.30
42803;DHT22;28447;48.682;9.022;2023-06-04T13:14:16;34.10;51.00
42803;DHT22;28447;48.682;9.022;2023-06-04T13:16:42;34.20;51.20
42803;DHT22;28447;48.682;9.022;2023-06-04T13:19:08;33.00;52.30
42803;DHT22;28447;48.682;9.022;2023-06-04T13:21:34;31.70;52.70
42803;DHT22;28447;48.682;9.022;2023-06-04T13:24:00;33.30;52.00
42803;DHT22;28447;48.682;9.022;2023-06-04T13:26:26;32.90;48.20
42803;DHT22;28447;48.682;9.022;2023-06-04T13:28:52;31.00;51.70
42803;DHT22;28447;48.682;9.022;2023-06-04T13:31:17;33.30;52.30
42803;DHT22;28447;48.682;9.022;2023-06-04T13:33:43;31.80;51.80
42803;DHT22;28447;48.682;9.022;2023-06-04T13:36:09;33.10;50.00
42803;DHT22;28447;48.682;9.022;2023-06-04T13:38:35;34.40;49.30
42803;DHT22;28447;48.682;9.022;2023-06-04T13:41:01;33.80;48.50
42803;DHT22;28447;48.682;9.022;2023-06-04T13:43:26;33.90;49.40
42803;DHT22;28447;48.682;9.022;2023-06-04T13:45:52;33.50;49.40
42803;DHT22;28447;48.682;9.022;2023-06-04T13:48:18;34.60;49.90
42803;DHT22;28447;48.682;9.022;2023-06-04T13:50:44;34.70;47.30
42803;DHT22;28447;48.682;9.022;2023-06-04T13:53:09;35.30;47.40
42803;DHT22;28447;48.682;9.022;2023-06-04T13:55:36;34.60;47.90
42803;DHT22;28447;48.682;9.022;2023-06-04T13:58:01;34.90;48.20
42803;DHT22;28447;48.682;9.022;2023-06-04T14:00:27;33.60;51.50
42803;DHT22;28447;48.682;9.022;2023-06-04T14:02:55;34.50;47.90
42803;DHT22;28447;48.682;9.022;2023-06-04T14:05:21;35.40;47.80
42803;DHT22;28447;48.682;9.022;2023-06-04T14:07:47;34.80;47.40
42803;DHT22;28447;48.682;9.022;2023-06-04T14:10:13;34.90;49.80
42803;DHT22;28447;48.682;9.022;2023-06-04T14:12:39;34.80;50.90
42803;DHT22;28447;48.682;9.022;2023-06-04T14:15:08;34.70;48.70
42803;DHT22;28447;48.682;9.022;2023-06-04T14:17:34;34.20;49.80
42803;DHT22;28447;48.682;9.022;2023-06-04T14:20:01;34.20;50.60
42803;DHT22;28447;48.682;9.022;2023-06-04T14:22:35;34.50;48.70
42803;DHT22;28447;48.682;9.022;2023-06-04T14:25:08;34.40;51.40
42803;DHT22;28447;48.682;9.022;2023-06-04T14:27:34;33.90;48.50
42803;DHT22;28447;48.682;9.022;2023-06-04T14:30:05;34.70;50.10
42803;DHT22;28447;48.682;9.022;2023-06-04T14:32:32;34.80;48.10
42803;DHT22;28447;48.682;9.022;2023-06-04T14:34:59;35.00;49.60
42803;DHT22;28447;48.682;9.022;2023-06-04T14:37:25;33.50;50.90
42803;DHT22;28447;48.682;9.022;2023-06-04T14:39:50;34.00;51.60
42803;DHT22;28447;48.682;9.022;2023-06-04T14:42:16;33.50;50.80
42803;DHT22;28447;48.682;9.022;2023-06-04T14:44:42;33.70;48.60
42803;DHT22;28447;48.682;9.022;2023-06-04T14:47:07;34.60;48.40
42803;DHT22;28447;48.682;9.022;2023-06-04T14:49:33;34.40;48.40
42803;DHT22;28447;48.682;9.022;2023-06-04T14:51:59;33.80;49.40
42803;DHT22;28447;48.682;9.022;2023-06-04T14:54:25;32.10;50.30
42803;DHT22;28447;48.682;9.022;2023-06-04T14:56:51;31.80;52.20
42803;DHT22;28447;48.682;9.022;2023-06-04T14:59:17;30.90;51.80
42803;DHT22;28447;48.682;9.022;2023-06-04T15:01:43;31.20;51.40
42803;DHT22;28447;48.682;9.022;2023-06-04T15:04:09;31.30;50.10
42803;DHT22;28447;48.682;9.022;2023-06-04T15:06:35;31.30;51.10
42803;DHT22;28447;48.682;9.022;2023-06-04T15:09:00;32.60;50.40
42803;DHT22;28447;48.682;9.022;2023-06-04T15:11:26;31.60;51.30
42803;DHT22;28447;48.682;9.022;2023-06-04T15:13:55;31.00;49.90
42803;DHT22;28447;48.682;9.022;2023-06-04T15:16:21;31.80;51.30
42803;DHT22;28447;48.682;9.022;2023-06-04T15:18:47;31.50;51.00
42803;DHT22;28447;48.682;9.022;2023-06-04T15:21:13;30.90;51.60
42803;DHT22;28447;48.682;9.022;2023-06-04T15:23:39;30.10;53.50
42803;DHT22;28447;48.682;9.022;2023-06-04T15:26:05;28.90;51.80
42803;DHT22;28447;48.682;9.022;2023-06-04T15:28:31;29.10;54.00
42803;DHT22;28447;48.682;9.022;2023-06-04T15:30:57;28.80;54.40
42803;DHT22;28447;48.682;9.022;2023-06-04T15:33:23;29.00;54.50
42803;DHT22;28447;48.682;9.022;2023-06-04T15:35:48;29.60;52.50
42803;DHT22;28447;48.682;9.022;2023-06-04T15:38:14;28.40;54.30
42803;DHT22;28447;48.682;9.022;2023-06-04T15:40:40;28.50;54.60
42803;DHT22;28447;48.682;9.022;2023-06-04T15:43:06;28.00;55.40
42803;DHT22;28447;48.682;9.022;2023-06-04T15:45:32;29.10;53.70
42803;DHT22;28447;48.682;9.022;2023-06-04T15:47:57;29.30;54.60
42803;DHT22;28447;48.682;9.022;2023-06-04T15:50:23;28.70;54.20
42803;DHT22;28447;48.682;9.022;2023-06-04T15:52:48;28.60;55.10
42803;DHT22;28447;48.682;9.022;2023-06-04T15:55:14;28.80;56.00
42803;DHT22;28447;48.682;9.022;2023-06-04T15:57:40;28.40;55.90
42803;DHT22;28447;48.682;9.022;2023-06-04T16:00:08;28.70;53.20
42803;DHT22;28447;48.682;9.022;2023-06-04T16:02:33;28.80;53.90
42803;DHT22;28447;48.682;9.022;2023-06-04T16:05:00;27.80;53.50
42803;DHT22;28447;48.682;9.022;2023-06-04T16:07:25;27.70;55.10
42803;DHT22;28447;48.682;9.022;2023-06-04T16:09:51;27.20;57.30
42803;DHT22;28447;48.682;9.022;2023-06-04T16:12:16;26.50;57.40
42803;DHT22;28447;48.682;9.022;2023-06-04T16:14:42;26.50;55.10
42803;DHT22;28447;48.682;9.022;2023-06-04T16:17:09;26.70;57.90
42803;DHT22;28447;48.682;9.022;2023-06-04T16:19:34;26.60;58.30
42803;DHT22;28447;48.682;9.022;2023-06-04T16:22:00;26.20;56.40
42803;DHT22;28447;48.682;9.022;2023-06-04T16:24:26;26.00;57.40
42803;DHT22;28447;48.682;9.022;2023-06-04T16:26:51;25.80;59.20
42803;DHT22;28447;48.682;9.022;2023-06-04T16:29:17;25.60;56.70
42803;DHT22;28447;48.682;9.022;2023-06-04T16:31:43;26.20;58.80
42803;DHT22;28447;48.682;9.022;2023-06-04T16:34:09;27.10;56.00
42803;DHT22;28447;48.682;9.022;2023-06-04T16:36:35;27.10;55.10
42803;DHT22;28447;48.682;9.022;2023-06-04T16:39:04;27.60;55.10
42803;DHT22;28447;48.682;9.022;2023-06-04T16:41:30;26.30;57.00
42803;DHT22;28447;48.682;9.022;2023-06-04T16:43:56;26.20;56.30
42803;DHT22;28447;48.682;9.022;2023-06-04T16:46:22;26.70;57.10
42803;DHT22;28447;48.682;9.022;2023-06-04T16:48:48;26.70;58.00
42803;DHT22;28447;48.682;9.022;2023-06-04T16:51:14;27.20;55.90
42803;DHT22;28447;48.682;9.022;2023-06-04T16:53:40;27.20;56.30
42803;DHT22;28447;48.682;9.022;2023-06-04T16:56:05;27.50;56.80
42803;DHT22;28447;48.682;9.022;2023-06-04T16:58:31;27.20;56.20
42803;DHT22;28447;48.682;9.022;2023-06-04T17:00:58;27.10;59.20
42803;DHT22;28447;48.682;9.022;2023-06-04T17:03:24;27.20;56.80
42803;DHT22;28447;48.682;9.022;2023-06-04T17:05:50;26.60;56.90
42803;DHT22;28447;48.682;9.022;2023-06-04T17:08:15;26.10;56.30
42803;DHT22;28447;48.682;9.022;2023-06-04T17:10:41;25.30;57.00
42803;DHT22;28447;48.682;9.022;2023-06-04T17:13:07;25.90;60.20
42803;DHT22;28447;48.682;9.022;2023-06-04T17:15:33;26.00;56.70
42803;DHT22;28447;48.682;9.022;2023-06-04T17:17:59;25.10;57.70
42803;DHT22;28447;48.682;9.022;2023-06-04T17:20:27;25.00;58.00
42803;DHT22;28447;48.682;9.022;2023-06-04T17:22:53;25.30;59.40
42803;DHT22;28447;48.682;9.022;2023-06-04T17:25:19;25.40;58.30
42803;DHT22;28447;48.682;9.022;2023-06-04T17:27:44;25.30;58.10
42803;DHT22;28447;48.682;9.022;2023-06-04T17:30:11;25.30;58.90
42803;DHT22;28447;48.682;9.022;2023-06-04T17:32:36;25.60;60.70
42803;DHT22;28447;48.682;9.022;2023-06-04T17:35:02;25.30;60.20
42803;DHT22;28447;48.682;9.022;2023-06-04T17:37:28;25.40;62.10
42803;DHT22;28447;48.682;9.022;2023-06-04T17:39:54;25.50;62.70
42803;DHT22;28447;48.682;9.022;2023-06-04T17:42:20;25.20;62.00
42803;DHT22;28447;48.682;9.022;2023-06-04T17:44:45;25.00;59.00
42803;DHT22;28447;48.682;9.022;2023-06-04T17:47:11;25.00;59.60
42803;DHT22;28447;48.682;9.022;2023-06-04T17:49:36;24.40;60.70
42803;DHT22;28447;48.682;9.022;2023-06-04T17:52:02;24.60;60.70
42803;DHT22;28447;48.682;9.022;2023-06-04T17:54:28;24.60;62.00
42803;DHT22;28447;48.682;9.022;2023-06-04T17:56:53;24.80;62.50
42803;DHT22;28447;48.682;9.022;2023-06-04T17:59:19;24.80;62.90
42803;DHT22;28447;48.682;9.022;2023-06-04T18:01:45;24.70;63.70
42803;DHT22;28447;48.682;9.022;2023-06-04T18:04:11;24.60;62.80
42803;DHT22;28447;48.682;9.022;2023-06-04T18:06:36;24.30;62.80
42803;DHT22;28447;48.682;9.022;2023-06-04T18:09:02;24.10;64.20
42803;DHT22;28447;48.682;9.022;2023-06-04T18:11:29;24.30;64.20
42803;DHT22;28447;48.682;9.022;2023-06-04T18:13:55;24.30;65.00
42803;DHT22;28447;48.682;9.022;2023-06-04T18:16:20;24.20;65.20
42803;DHT22;28447;48.682;9.022;2023-06-04T18:18:46;24.20;65.00
42803;DHT22;28447;48.682;9.022;2023-06-04T18:21:12;24.00;65.90
42803;DHT22;28447;48.682;9.022;2023-06-04T18:23:37;23.90;66.30
42803;DHT22;28447;48.682;9.022;2023-06-04T18:26:03;23.80;66.80
42803;DHT22;28447;48.682;9.022;2023-06-04T18:28:29;23.70;67.50
42803;DHT22;28447;48.682;9.022;2023-06-04T18:30:55;23.40;65.30
42803;DHT22;28447;48.682;9.022;2023-06-04T18:33:24;22.90;65.50
42803;DHT22;28447;48.682;9.022;2023-06-04T18:35:51;22.40;67.50
42803;DHT22;28447;48.682;9.022;2023-06-04T18:38:17;22.10;67.60
42803;DHT22;28447;48.682;9.022;2023-06-04T18:40:42;21.80;69.20
42803;DHT22;28447;48.682;9.022;2023-06-04T18:43:08;21.70;70.30
42803;DHT22;28447;48.682;9.022;2023-06-04T18:45:33;21.50;69.80
42803;DHT22;28447;48.682;9.022;2023-06-04T18:47:59;21.40;69.60
42803;DHT22;28447;48.682;9.022;2023-06-04T18:50:25;21.30;71.70
42803;DHT22;28447;48.682;9.022;2023-06-04T18:52:50;21.10;69.20
42803;DHT22;28447;48.682;9.022;2023-06-04T18:55:17;21.00;71.50
42803;DHT22;28447;48.682;9.022;2023-06-04T18:57:42;20.90;73.10
42803;DHT22;28447;48.682;9.022;2023-06-04T19:00:08;20.70;71.20
42803;DHT22;28447;48.682;9.022;2023-06-04T19:02:38;20.60;69.40
42803;DHT22;28447;48.682;9.022;2023-06-04T19:05:04;20.40;70.90
42803;DHT22;28447;48.682;9.022;2023-06-04T19:07:31;20.40;70.30
42803;DHT22;28447;48.682;9.022;2023-06-04T19:09:57;20.40;72.90
42803;DHT22;28447;48.682;9.022;2023-06-04T19:12:24;20.20;73.30
42803;DHT22;28447;48.682;9.022;2023-06-04T19:14:51;20.10;70.30
42803;DHT22;28447;48.682;9.022;2023-06-04T19:17:21;19.90;72.40
42803;DHT22;28447;48.682;9.022;2023-06-04T19:19:48;19.90;74.10
42803;DHT22;28447;48.682;9.022;2023-06-04T19:22:14;19.80;72.70
42803;DHT22;28447;48.682;9.022;2023-06-04T19:24:41;19.60;74.60
42803;DHT22;28447;48.682;9.022;2023-06-04T19:27:06;19.60;75.20
42803;DHT22;28447;48.682;9.022;2023-06-04T19:29:32;19.50;72.70